Time;durP1;ratioP1;P1;durP2;ratioP2;P2;SDS_P1;SDS_P2;PMS_P1;PMS_P2;Temp;Humidity;BMP_temperature;BMP_pressure;BME280_temperature;BME280_humidity;BME280_pressure;Samples;Min_cycle;Max_cycle;Signal;HPM_P1;HPM_P2
2022/12/28 00:00:24;;;;;;;1.50;1.40;;;;;;;7.15;86.48;100454.16;467205;113;922677;-79
2022/12/28 00:01:32;;;;;;;1.46;1.36;;;;;;;7.15;86.42;100454.16;467268;113;923182;-81
2022/12/28 00:02:36;;;;;;;1.41;1.33;;;;;;;7.13;86.44;100451.63;467091;113;922580;-81
2022/12/28 00:03:39;;;;;;;1.54;1.44;;;;;;;7.11;86.48;100454.53;464662;113;923076;-81
2022/12/28 00:04:42;;;;;;;1.51;1.42;;;;;;;7.10;86.53;100446.61;460498;115;922971;-81
2022/12/28 00:05:45;;;;;;;1.99;1.80;;;;;;;7.08;86.57;100452.23;460390;115;922976;-83
2022/12/28 00:06:49;;;;;;;1.51;1.41;;;;;;;7.07;86.72;100446.98;460517;115;922608;-81
2022/12/28 00:07:52;;;;;;;1.64;1.54;;;;;;;7.05;86.66;100452.62;460410;115;922922;-81
2022/12/28 00:08:56;;;;;;;1.87;1.77;;;;;;;7.05;86.71;100447.20;466373;113;930467;-81
2022/12/28 00:09:59;;;;;;;1.75;1.65;;;;;;;7.04;86.83;100453.66;469044;113;923198;-81
2022/12/28 00:11:05;;;;;;;1.78;1.68;;;;;;;7.04;86.78;100441.97;469117;113;923018;-79
2022/12/28 00:12:10;;;;;;;1.71;1.61;;;;;;;7.04;86.81;100447.39;468746;113;922431;-81
2022/12/28 00:13:13;;;;;;;2.17;2.01;;;;;;;7.05;86.83;100449.08;468616;113;923378;-81
2022/12/28 00:14:16;;;;;;;1.81;1.71;;;;;;;7.05;86.83;100446.36;467221;113;922474;-80
2022/12/28 00:15:19;;;;;;;2.45;2.25;;;;;;;7.05;86.97;100449.92;467224;113;922465;-80
2022/12/28 00:16:29;;;;;;;4.89;2.03;;;;;;;7.05;87.04;100444.50;467156;113;922496;-81
2022/12/28 00:17:33;;;;;;;1.99;1.88;;;;;;;7.04;87.05;100448.23;467037;113;922607;-82
2022/12/28 00:18:36;;;;;;;1.82;1.72;;;;;;;7.04;87.05;100442.81;467447;113;923056;-82
2022/12/28 00:19:39;;;;;;;1.76;1.66;;;;;;;7.02;87.00;100449.45;469092;113;922560;-81
2022/12/28 00:20:42;;;;;;;1.71;1.61;;;;;;;7.03;87.04;100443.00;469081;113;930228;-80
2022/12/28 00:21:46;;;;;;;1.57;1.47;;;;;;;7.02;87.11;100446.73;469220;113;922952;-81
2022/12/28 00:22:49;;;;;;;1.70;1.60;;;;;;;7.01;87.05;100448.61;469116;113;922606;-82
2022/12/28 00:23:55;;;;;;;1.62;1.52;;;;;;;7.01;87.17;100448.61;463822;113;922590;-80
2022/12/28 00:24:59;;;;;;;1.90;1.78;;;;;;;6.98;87.16;100446.30;460356;115;922572;-79
2022/12/28 00:26:11;;;;;;;1.87;1.77;;;;;;;6.97;87.16;100444.62;460511;115;922426;-80
2022/12/28 00:27:14;;;;;;;1.68;1.58;;;;;;;6.96;87.18;100444.80;460350;115;922500;-81
2022/12/28 00:28:19;;;;;;;1.95;1.85;;;;;;;6.95;87.18;100443.12;461212;113;922756;-80
2022/12/28 00:29:22;;;;;;;2.10;1.84;;;;;;;6.93;87.12;100443.34;469051;113;923053;-80
2022/12/28 00:30:26;;;;;;;1.92;1.76;;;;;;;6.92;87.22;100451.66;469048;113;922732;-79
2022/12/28 00:31:29;;;;;;;2.08;1.84;;;;;;;6.90;87.25;100446.42;469145;113;922518;-80
2022/12/28 00:32:32;;;;;;;2.09;1.99;;;;;;;6.91;87.17;100450.81;469161;113;922535;-83
2022/12/28 00:33:35;;;;;;;1.84;1.74;;;;;;;6.90;87.23;100445.58;468577;113;922571;-80
2022/12/28 00:34:38;;;;;;;1.79;1.69;;;;;;;6.89;87.22;100454.77;469161;113;922590;-80
2022/12/28 00:35:43;;;;;;;1.92;1.82;;;;;;;6.88;87.11;100450.37;468975;113;922474;-81
2022/12/28 00:36:51;;;;;;;2.25;2.15;;;;;;;6.84;87.13;100447.19;469148;113;922458;-79
2022/12/28 00:37:56;;;;;;;2.09;1.92;;;;;;;6.84;87.13;100447.19;466066;113;922429;-80
2022/12/28 00:38:59;;;;;;;1.97;1.87;;;;;;;6.82;87.07;100443.86;460891;113;922569;-80
2022/12/28 00:40:02;;;;;;;2.39;2.19;;;;;;;6.81;87.06;100453.02;458466;115;922446;-79
2022/12/28 00:41:06;;;;;;;1.83;1.73;;;;;;;6.78;87.17;100447.97;465059;114;922640;-80
2022/12/28 00:42:09;;;;;;;2.02;1.92;;;;;;;6.75;87.06;100448.36;464643;114;922585;-80
2022/12/28 00:43:13;;;;;;;2.42;2.22;;;;;;;6.74;87.20;100445.84;458817;113;922545;-81
2022/12/28 00:44:16;;;;;;;1.96;1.86;;;;;;;6.72;87.25;100446.06;460984;115;922606;-81
2022/12/28 00:45:19;;;;;;;2.48;2.10;;;;;;;6.71;87.32;100449.79;461032;115;922553;-82
2022/12/28 00:46:22;;;;;;;1.92;1.82;;;;;;;6.70;87.23;100445.40;461013;115;922548;-81
2022/12/28 00:47:25;;;;;;;1.91;1.81;;;;;;;6.70;87.27;100448.11;460967;115;922780;-81
2022/12/28 00:48:28;;;;;;;1.80;1.70;;;;;;;6.67;87.30;100438.48;463067;113;922974;-82
2022/12/28 00:49:32;;;;;;;2.04;1.94;;;;;;;6.65;87.29;100440.56;469852;113;922798;-80
2022/12/28 00:50:35;;;;;;;2.24;2.14;;;;;;;6.65;87.27;100447.85;470118;113;922079;-81
2022/12/28 00:51:38;;;;;;;2.22;2.09;;;;;;;6.63;87.18;100439.91;470061;113;922223;-80
2022/12/28 00:52:42;;;;;;;2.37;2.22;;;;;;;6.62;87.24;100448.22;470222;113;922314;-78
2022/12/28 00:53:45;;;;;;;2.52;2.33;;;;;;;6.60;87.15;100451.14;469520;110;922032;-80
2022/12/28 00:54:48;;;;;;;2.56;2.36;;;;;;;6.58;87.14;100446.94;470329;113;922018;-80
2022/12/28 00:55:51;;;;;;;2.23;2.13;;;;;;;6.57;87.20;100453.38;462473;113;922931;-81
2022/12/28 00:56:54;;;;;;;2.42;2.27;;;;;;;6.57;87.24;100456.08;460965;115;922937;-79
2022/12/28 00:57:58;;;;;;;2.18;2.08;;;;;;;6.56;87.18;100443.59;460993;115;922666;-79
2022/12/28 00:59:02;;;;;;;2.32;2.17;;;;;;;6.54;87.19;100449.20;461472;113;922517;-79
2022/12/28 01:00:06;;;;;;;2.22;2.12;;;;;;;6.53;87.33;100455.64;460954;115;922535;-81
2022/12/28 01:01:14;;;;;;;2.33;2.12;;;;;;;6.52;87.22;100451.25;460783;115;922462;-79
2022/12/28 01:02:17;;;;;;;2.21;2.06;;;;;;;6.51;87.19;100451.43;460758;115;922913;-80
2022/12/28 01:03:20;;;;;;;2.27;2.16;;;;;;;6.49;87.07;100445.39;461085;113;922616;-81
2022/12/28 01:04:24;;;;;;;2.39;2.27;;;;;;;6.48;87.12;100443.70;461018;115;922500;-80
2022/12/28 01:05:27;;;;;;;2.49;2.29;;;;;;;6.48;87.25;100451.83;460929;115;922631;-80
2022/12/28 01:06:30;;;;;;;2.49;2.29;;;;;;;6.47;87.19;100448.28;460903;115;922586;-82
2022/12/28 01:07:34;;;;;;;2.41;2.24;;;;;;;6.46;87.28;100460.14;460876;115;922837;-80
2022/12/28 01:08:38;;;;;;;3.27;3.08;;;;;;;6.46;87.27;100456.58;460302;113;923037;-80
2022/12/28 01:09:41;;;;;;;2.60;2.50;;;;;;;6.45;87.16;100466.58;458377;115;922621;-79
2022/12/28 01:10:44;;;;;;;2.97;2.77;;;;;;;6.46;87.25;100464.71;458382;115;930337;-81
2022/12/28 01:11:48;;;;;;;2.74;2.54;;;;;;;6.44;87.11;100467.63;458467;114;923064;-82
2022/12/28 01:12:52;;;;;;;2.98;2.76;;;;;;;6.43;87.09;100473.23;458471;115;923368;-79
2022/12/28 01:13:57;;;;;;;3.38;3.18;;;;;;;6.41;87.06;100467.16;465027;113;922480;-79
2022/12/28 01:15:01;;;;;;;3.16;2.96;;;;;;;6.40;87.01;100474.44;468916;113;922587;-80
2022/12/28 01:16:17;;;;;;;2.99;2.79;;;;;;;6.37;86.98;100474.83;469054;113;922815;-80
2022/12/28 01:17:21;;;;;;;3.64;3.34;;;;;;;6.33;87.04;100462.71;468981;113;922558;-79
2022/12/28 01:18:24;;;;;;;3.34;3.10;;;;;;;6.32;87.02;100476.43;466682;113;922606;-79
2022/12/28 01:19:27;;;;;;;3.58;3.33;;;;;;;6.29;87.07;100470.35;458511;115;922532;-80
2022/12/28 01:20:30;;;;;;;3.16;2.96;;;;;;;6.28;87.17;100473.27;458472;115;922560;-80
2022/12/28 01:21:35;;;;;;;3.69;3.40;;;;;;;6.26;87.13;100470.75;458435;114;922450;-81
2022/12/28 01:22:38;;;;;;;3.50;3.26;;;;;;;6.24;87.24;100472.80;458325;115;922853;-82
2022/12/28 01:23:44;;;;;;;3.46;3.25;;;;;;;6.24;87.14;100474.66;463742;113;922586;-80
2022/12/28 01:24:47;;;;;;;3.39;3.19;;;;;;;6.22;87.13;100474.03;468328;113;923001;-79
2022/12/28 01:25:50;;;;;;;3.62;3.33;;;;;;;6.19;87.31;100472.52;468511;113;922704;-80
2022/12/28 01:26:53;;;;;;;3.74;3.46;;;;;;;6.19;87.34;100475.23;469099;113;922974;-80
2022/12/28 01:27:56;;;;;;;3.61;3.37;;;;;;;6.18;87.24;100470.00;469131;113;922888;-81
2022/12/28 01:29:00;;;;;;;3.40;3.20;;;;;;;6.15;87.24;100463.11;460659;113;923198;-79
2022/12/28 01:30:06;;;;;;;3.59;3.34;;;;;;;6.13;87.32;100456.19;458315;114;922523;-80
2022/12/28 01:31:11;;;;;;;4.45;4.12;;;;;;;6.13;87.36;100467.02;458346;115;922815;-81
2022/12/28 01:32:16;;;;;;;4.05;3.75;;;;;;;6.13;87.40;100457.03;458300;115;922557;-81
2022/12/28 01:33:19;;;;;;;3.73;3.43;;;;;;;6.12;87.38;100458.05;459557;113;922677;-79
2022/12/28 01:34:23;;;;;;;3.81;3.54;;;;;;;6.11;87.41;100450.15;469002;113;922822;-80
2022/12/28 01:35:26;;;;;;;4.62;4.28;;;;;;;6.10;87.53;100451.17;469094;113;922464;-80
2022/12/28 01:36:33;;;;;;;4.36;4.06;;;;;;;6.10;87.45;100452.02;469018;113;922918;-81
2022/12/28 01:37:36;;;;;;;5.04;4.72;;;;;;;6.09;87.56;100442.20;468911;113;923036;-80
2022/12/28 01:38:40;;;;;;;4.34;4.04;;;;;;;6.10;87.46;100451.17;468364;113;922665;-82
2022/12/28 01:39:43;;;;;;;4.57;4.20;;;;;;;6.09;87.52;100457.61;469114;113;922500;-79
2022/12/28 01:40:46;;;;;;;4.93;4.63;;;;;;;6.09;87.63;100458.45;469039;113;922363;-81
2022/12/28 01:41:49;;;;;;;4.26;3.98;;;;;;;6.09;87.51;100454.90;469077;113;922429;-80
2022/12/28 01:42:52;;;;;;;4.81;4.50;;;;;;;6.07;87.51;100457.78;469143;113;922479;-81
2022/12/28 01:43:59;;;;;;;4.89;4.56;;;;;;;6.07;87.46;100465.91;467957;113;922595;-79
2022/12/28 01:45:09;;;;;;;5.09;4.69;;;;;;;6.07;87.57;100459.66;468927;113;922479;-80
2022/12/28 01:46:23;;;;;;;5.22;4.83;;;;;;;6.15;87.56;100460.41;482475;110;947493;-79
2022/12/28 01:47:29;;;;;;;5.27;4.87;;;;;;;6.02;87.51;100441.28;473926;112;922676;-79
2022/12/28 01:48:35;;;;;;;5.13;4.74;;;;;;;6.01;87.39;100452.31;472886;112;922938;-80
2022/12/28 01:49:42;;;;;;;5.19;4.82;;;;;;;5.98;87.45;100456.22;473945;112;922535;-79
2022/12/28 01:50:46;;;;;;;5.57;5.17;;;;;;;5.95;87.43;100451.20;466662;112;922958;-80
2022/12/28 01:52:05;;;;;;;5.59;5.23;;;;;;;5.94;87.32;100445.97;465604;114;922895;-81
2022/12/28 01:53:08;;;;;;;5.53;5.14;;;;;;;5.93;87.36;100450.53;465473;114;922550;-80
2022/12/28 01:54:12;;;;;;;5.90;5.50;;;;;;;5.92;87.45;100456.97;465590;114;922596;-79
2022/12/28 01:55:24;;;;;;;6.59;6.12;;;;;;;5.93;87.46;100452.40;464491;114;922503;-82
2022/12/28 01:56:28;;;;;;;6.02;5.61;;;;;;;5.93;87.53;100458.66;460624;115;922364;-80
2022/12/28 01:57:35;;;;;;;6.51;6.05;;;;;;;5.92;87.49;100450.72;461286;115;922589;-78
2022/12/28 01:58:39;;;;;;;6.24;5.84;;;;;;;5.92;87.47;100456.97;462601;114;922699;-80
2022/12/28 01:59:46;;;;;;;6.38;5.98;;;;;;;5.91;87.44;100449.03;465639;114;922489;-80
2022/12/28 02:00:50;;;;;;;6.71;6.21;;;;;;;5.91;87.28;100451.73;465435;114;922605;-81
2022/12/28 02:01:54;;;;;;;6.03;5.62;;;;;;;5.90;87.28;100450.09;465576;114;922936;-81
2022/12/28 02:03:02;;;;;;;6.86;6.39;;;;;;;5.90;87.34;100450.89;465459;114;923077;-82
2022/12/28 02:04:05;;;;;;;6.23;5.79;;;;;;;5.90;87.22;100439.27;458079;114;930483;-78
2022/12/28 02:05:09;;;;;;;6.83;6.36;;;;;;;5.89;87.28;100453.81;457641;116;922360;-79
2022/12/28 02:06:13;;;;;;;7.81;7.31;;;;;;;5.86;87.01;100461.23;457441;116;922911;-79
2022/12/28 02:07:25;;;;;;;7.04;6.54;;;;;;;5.86;86.97;100463.09;457633;116;931022;-81
2022/12/28 02:08:40;;;;;;;7.90;7.31;;;;;;;5.84;87.08;100454.34;459011;114;922589;-78
2022/12/28 02:09:43;;;;;;;6.99;6.52;;;;;;;5.83;86.88;100461.63;465514;114;922517;-80
2022/12/28 02:10:51;;;;;;;6.86;6.39;;;;;;;5.81;86.86;100457.41;462312;114;922789;-81
2022/12/28 02:11:54;;;;;;;7.08;6.58;;;;;;;5.81;87.00;100476.34;465456;114;922601;-79
2022/12/28 02:12:59;;;;;;;7.21;6.70;;;;;;;5.80;86.97;100469.25;465568;114;922875;-80
2022/12/28 02:14:05;;;;;;;7.11;6.61;;;;;;;5.79;86.96;100468.41;465222;114;922574;-79
2022/12/28 02:15:08;;;;;;;7.80;7.20;;;;;;;5.78;86.84;100471.33;465447;114;923050;-80
2022/12/28 02:16:12;;;;;;;7.54;7.04;;;;;;;5.78;86.85;100471.33;465600;114;922440;-79
2022/12/28 02:17:17;;;;;;;6.97;6.42;;;;;;;5.78;86.94;100465.91;465460;114;922533;-81
2022/12/28 02:18:21;;;;;;;7.28;6.77;;;;;;;5.77;86.92;100466.94;464024;114;922503;-80
2022/12/28 02:19:44;;;;;;;7.24;6.76;;;;;;;5.78;86.83;100474.03;455459;116;922519;-81
2022/12/28 02:21:06;;;;;;;7.64;7.04;;;;;;;5.77;86.82;100475.05;455241;116;922557;-81
2022/12/28 02:22:28;;;;;;;8.03;7.43;;;;;;;5.75;86.61;100482.50;455292;116;922644;-80
2022/12/28 02:23:51;;;;;;;7.72;7.22;;;;;;;5.72;86.53;100485.59;458838;114;923391;-80
2022/12/28 02:25:21;;;;;;;8.51;7.93;;;;;;;5.68;86.54;100481.59;465418;114;922537;-78
2022/12/28 02:26:55;;;;;;;7.71;7.11;;;;;;;5.66;86.59;100483.63;465399;114;922735;-80
2022/12/28 02:28:27;;;;;;;8.43;7.83;;;;;;;5.64;86.60;100485.66;465463;114;922560;-80
2022/12/28 02:29:46;;;;;;;8.00;7.40;;;;;;;5.61;86.56;100492.30;457403;116;922578;-80
2022/12/28 02:30:55;;;;;;;7.93;7.33;;;;;;;5.59;86.53;100486.22;448150;118;922766;-80
2022/12/28 02:32:18;;;;;;;8.01;7.52;;;;;;;5.55;86.28;100498.44;477185;110;947371;-80
2022/12/28 02:33:25;;;;;;;8.31;7.71;;;;;;;5.55;86.28;100498.44;465413;114;922985;-81
2022/12/28 02:34:34;;;;;;;7.73;7.23;;;;;;;5.53;86.19;100499.64;465536;113;922485;-81
2022/12/28 02:35:57;;;;;;;8.64;8.04;;;;;;;5.50;86.08;100494.61;469711;112;922500;-82
2022/12/28 02:37:04;;;;;;;7.83;7.33;;;;;;;5.48;86.00;100491.23;471494;112;922662;-81
2022/12/28 02:38:15;;;;;;;7.89;7.32;;;;;;;5.45;85.95;100504.13;471388;112;922578;-80
2022/12/28 02:39:22;;;;;;;8.10;7.50;;;;;;;5.43;85.87;100505.31;463148;114;922478;-80
2022/12/28 02:40:41;;;;;;;8.08;7.49;;;;;;;5.42;85.85;100501.77;463015;114;922621;-77
2022/12/28 02:41:53;;;;;;;7.87;7.31;;;;;;;5.51;85.71;100493.59;477230;110;946945;-79
2022/12/28 02:42:57;;;;;;;9.07;8.44;;;;;;;5.36;85.64;100507.91;465506;114;922965;-81
2022/12/28 02:44:00;;;;;;;7.44;6.92;;;;;;;5.37;85.72;100500.64;459454;112;922841;-79
2022/12/28 02:50:45;;;;;;;;;;;;;;;5.38;85.62;100505.88;466920;114;921963;-80
2022/12/28 02:52:00;;;;;;;8.11;7.51;;;;;;;5.38;85.61;100513.14;462607;114;922287;-82
2022/12/28 02:53:09;;;;;;;8.27;7.71;;;;;;;5.36;85.54;100516.02;462245;114;930512;-80
2022/12/28 02:56:07;;;;;;;7.81;7.29;;;;;;;5.30;85.27;100516.74;464110;112;922759;-80
2022/12/28 02:57:38;;;;;;;7.79;7.29;;;;;;;5.26;85.32;100512.73;463148;114;922597;-80
2022/12/28 02:58:54;;;;;;;6.13;5.73;;;;;;;5.23;85.08;100531.19;446979;116;922675;-80
2022/12/28 03:00:27;;;;;;;6.14;5.71;;;;;;;5.23;84.47;100525.78;476872;110;947025;-79
2022/12/28 03:01:45;;;;;;;6.19;5.74;;;;;;;5.03;84.39;100538.92;461915;114;922608;-80
2022/12/28 03:03:15;;;;;;;5.82;5.33;;;;;;;4.98;84.17;100535.92;458219;113;922271;-80
2022/12/28 03:04:40;;;;;;;4.47;4.17;;;;;;;4.90;84.16;100539.55;451705;116;922849;-79
2022/12/28 03:09:32;;;;;;;4.29;3.99;;;;;;;4.66;83.49;100545.09;457436;113;922572;-80
2022/12/28 03:10:39;;;;;;;4.16;3.86;;;;;;;4.59;83.17;100544.10;462440;113;923007;-80
2022/12/28 03:11:55;;;;;;;3.85;3.58;;;;;;;4.61;83.26;100553.72;477193;110;947411;-80
2022/12/28 03:14:43;;;;;;;3.39;3.11;;;;;;;4.44;83.32;100545.87;454450;116;922587;-80
2022/12/28 03:15:46;;;;;;;3.56;3.35;;;;;;;4.40;83.31;100541.86;450573;116;922527;-78
2022/12/28 03:31:08;;;;;;;1.70;1.60;;;;;;;4.14;82.76;100558.30;457368;116;922624;-78
2022/12/28 03:32:14;;;;;;;1.78;1.55;;;;;;;4.15;82.48;100558.13;457294;116;922945;-79
2022/12/28 03:33:18;;;;;;;1.50;1.40;;;;;;;4.16;82.30;100572.47;457884;114;922749;-81
2022/12/28 03:34:23;;;;;;;1.52;1.15;;;;;;;4.15;82.21;100570.78;450519;117;922985;-80
2022/12/28 03:35:41;;;;;;;1.27;1.16;;;;;;;4.16;82.02;100564.38;450892;115;922689;-80
2022/12/28 03:37:00;;;;;;;1.34;1.23;;;;;;;4.14;80.98;100577.19;457277;115;930171;-79
2022/12/28 03:38:04;;;;;;;1.17;1.08;;;;;;;4.12;81.00;100576.54;457359;115;922533;-79
2022/12/28 03:39:33;;;;;;;1.08;1.04;;;;;;;4.10;80.58;100586.65;457546;116;922442;-81
2022/12/28 03:40:48;;;;;;;1.67;1.39;;;;;;;4.09;80.84;100579.56;457455;114;922508;-79
2022/12/28 03:43:41;;;;;;;0.78;0.78;;;;;;;4.09;80.47;100591.20;458997;114;922517;-79
2022/12/28 03:44:56;;;;;;;1.08;0.81;;;;;;;4.08;80.15;100603.00;464127;113;922377;-79
2022/12/28 03:46:05;;;;;;;0.99;0.75;;;;;;;4.06;79.86;100601.51;465117;110;922046;-77
2022/12/28 03:47:12;;;;;;;0.54;0.54;;;;;;;4.04;79.65;100611.62;465540;110;921982;-78
2022/12/28 03:48:16;;;;;;;1.08;0.67;;;;;;;4.02;79.45;100592.08;464710;113;922224;-79
2022/12/28 03:49:22;;;;;;;0.72;0.72;;;;;;;4.01;78.91;100603.88;458886;112;922139;-80
2022/12/28 03:50:25;;;;;;;0.79;0.79;;;;;;;3.98;78.49;100606.91;451900;114;922304;-79
2022/12/28 03:51:31;;;;;;;0.64;0.64;;;;;;;3.97;78.41;100607.95;452239;116;922434;-80
2022/12/28 03:52:35;;;;;;;0.79;0.79;;;;;;;3.98;78.57;100615.00;458712;112;922156;-80
2022/12/28 03:53:42;;;;;;;1.12;0.78;;;;;;;3.97;78.41;100616.85;458910;112;922055;-79
2022/12/28 03:54:47;;;;;;;0.69;0.68;;;;;;;3.98;78.50;100617.70;458798;116;922373;-79
2022/12/28 03:55:50;;;;;;;0.67;0.67;;;;;;;3.99;78.66;100620.23;458948;114;921957;-78
2022/12/28 03:56:54;;;;;;;0.88;0.88;;;;;;;4.01;78.74;100620.91;458869;111;922432;-80
2022/12/28 03:57:59;;;;;;;0.66;0.64;;;;;;;4.02;78.19;100627.16;458735;116;922059;-80
2022/12/28 03:59:03;;;;;;;1.32;0.69;;;;;;;4.05;78.58;100626.80;464073;114;922458;-80
2022/12/28 04:00:09;;;;;;;0.59;0.59;;;;;;;4.08;78.65;100626.47;464682;114;923048;-80
2022/12/28 04:01:15;;;;;;;0.82;0.82;;;;;;;4.11;78.86;100624.27;464997;113;921989;-80
2022/12/28 04:02:18;;;;;;;0.52;0.52;;;;;;;4.15;78.63;100630.14;465546;113;922144;-78
2022/12/28 04:03:22;;;;;;;0.55;0.55;;;;;;;4.19;78.63;100636.87;463994;114;921941;-79
2022/12/28 04:04:26;;;;;;;0.84;0.84;;;;;;;4.22;78.48;100633.84;458868;116;922135;-79
2022/12/28 04:05:30;;;;;;;0.94;0.94;;;;;;;4.24;78.36;100629.12;458738;114;929484;-79
2022/12/28 04:06:33;;;;;;;0.71;0.71;;;;;;;4.25;78.45;100633.48;458880;116;922110;-79
2022/12/28 04:07:37;;;;;;;1.43;0.71;;;;;;;4.27;78.14;100636.87;458762;115;929651;-80
2022/12/28 04:08:41;;;;;;;1.50;1.40;;;;;;;4.28;78.17;100633.16;458885;114;922304;-80
2022/12/28 04:09:44;;;;;;;1.19;1.09;;;;;;;4.28;78.12;100633.16;458873;116;922195;-80
2022/12/28 04:10:47;;;;;;;1.28;1.18;;;;;;;4.28;77.99;100638.56;458932;114;921983;-79
2022/12/28 04:11:51;;;;;;;0.96;0.96;;;;;;;4.30;78.10;100636.51;459002;111;922128;-79
2022/12/28 04:12:56;;;;;;;1.22;1.11;;;;;;;4.32;77.96;100639.05;458448;112;922738;-79
2022/12/28 04:14:07;;;;;;;0.80;0.55;;;;;;;4.32;78.18;100642.59;462345;114;922710;-79
2022/12/28 04:15:12;;;;;;;0.59;0.59;;;;;;;4.32;77.94;100639.89;463009;112;922406;-81
2022/12/28 04:16:16;;;;;;;0.51;0.50;;;;;;;4.31;77.92;100648.15;455036;116;922356;-80
2022/12/28 04:17:19;;;;;;;0.59;0.41;;;;;;;4.30;77.90;100646.48;455482;114;922627;-79
2022/12/28 04:18:23;;;;;;;0.50;0.48;;;;;;;4.27;77.60;100644.97;462938;114;924091;-79
2022/12/28 04:19:26;;;;;;;0.34;0.34;;;;;;;4.25;77.66;100648.84;463186;114;922461;-80
2022/12/28 04:20:29;;;;;;;0.56;0.56;;;;;;;4.24;77.55;100642.62;463051;112;922400;-79
2022/12/28 04:21:32;;;;;;;0.49;0.49;;;;;;;4.24;77.55;100649.88;463136;114;930096;-79
2022/12/28 04:22:36;;;;;;;0.36;0.36;;;;;;;4.24;77.62;100648.02;463104;114;922529;-80
2022/12/28 04:23:40;;;;;;;0.54;0.54;;;;;;;4.23;77.35;100646.33;462318;114;923453;-80
2022/12/28 04:24:45;;;;;;;1.02;0.32;;;;;;;4.23;77.40;100653.59;460448;114;922933;-79
2022/12/28 04:26:03;;;;;;;0.40;0.40;;;;;;;4.22;77.14;100647.34;463105;112;922489;-78
2022/12/28 04:27:07;;;;;;;0.46;0.46;;;;;;;4.22;77.19;100644.64;462672;114;922631;-80
2022/12/28 04:28:10;;;;;;;0.42;0.42;;;;;;;4.22;76.93;100646.49;462962;114;922495;-80
2022/12/28 04:29:27;;;;;;;0.35;0.35;;;;;;;4.22;76.96;100650.04;435359;121;922658;-78
2022/12/28 04:30:37;;;;;;;0.32;0.32;;;;;;;4.33;76.85;100651.53;476710;110;946870;-79
2022/12/28 04:31:40;;;;;;;0.34;0.32;;;;;;;4.22;76.78;100649.20;466035;114;922563;-79
2022/12/28 04:32:45;;;;;;;0.45;0.45;;;;;;;4.21;76.81;100648.34;465011;114;922549;-80
2022/12/28 04:33:48;;;;;;;0.30;0.28;;;;;;;4.21;76.73;100651.05;465432;114;922865;-80
2022/12/28 04:34:52;;;;;;;0.31;0.30;;;;;;;4.20;76.69;100650.20;465863;114;922849;-80
2022/12/28 04:35:59;;;;;;;0.41;0.40;;;;;;;4.22;76.80;100651.89;465799;114;930118;-80
2022/12/28 04:37:02;;;;;;;0.52;0.30;;;;;;;4.22;76.71;100643.80;465161;114;922379;-79
2022/12/28 04:38:05;;;;;;;0.34;0.31;;;;;;;4.22;76.65;100644.64;465860;114;922901;-79
2022/12/28 04:39:08;;;;;;;0.39;0.39;;;;;;;4.23;76.57;100646.33;460451;114;922838;-80
2022/12/28 04:40:13;;;;;;;0.41;0.41;;;;;;;4.23;76.38;100649.03;459900;115;922464;-81
2022/12/28 04:41:16;;;;;;;1.26;0.52;;;;;;;4.21;76.37;100648.34;460063;115;930109;-80
2022/12/28 04:42:20;;;;;;;0.23;0.23;;;;;;;4.20;76.42;100650.20;460178;115;922584;-78
2022/12/28 04:43:23;;;;;;;0.28;0.28;;;;;;;4.19;76.19;100642.27;461432;114;922537;-78
2022/12/28 04:44:26;;;;;;;0.53;0.53;;;;;;;4.17;75.71;100649.72;464434;114;922277;-78
2022/12/28 04:45:29;;;;;;;0.58;0.30;;;;;;;4.13;75.59;100651.08;464335;114;922309;-79
2022/12/28 04:46:32;;;;;;;0.34;0.34;;;;;;;4.08;75.70;100648.88;464314;114;922524;-80
2022/12/28 04:47:35;;;;;;;0.28;0.28;;;;;;;4.04;75.79;100646.69;464336;114;922416;-80
2022/12/28 04:48:39;;;;;;;0.47;0.46;;;;;;;4.03;75.72;100645.00;464824;114;923279;-80
2022/12/28 04:49:42;;;;;;;0.36;0.30;;;;;;;4.02;75.67;100640.64;465707;114;922898;-80
2022/12/28 04:50:46;;;;;;;0.37;0.36;;;;;;;3.99;75.77;100647.21;465664;113;930410;-80
2022/12/28 04:51:49;;;;;;;0.39;0.39;;;;;;;3.97;75.79;100643.83;465726;114;922670;-81
2022/12/28 04:52:52;;;;;;;0.47;0.35;;;;;;;3.95;75.85;100645.88;465749;114;922925;-77
2022/12/28 04:53:56;;;;;;;0.49;0.49;;;;;;;3.93;75.90;100650.59;465495;114;922585;-79
2022/12/28 04:54:59;;;;;;;0.70;0.41;;;;;;;3.93;75.91;100663.23;465685;113;922484;-80
2022/12/28 04:56:03;;;;;;;0.50;0.50;;;;;;;3.92;75.81;100650.75;457687;116;922589;-81
2022/12/28 04:57:06;;;;;;;0.45;0.40;;;;;;;3.91;75.97;100657.18;457741;116;923072;-78
2022/12/28 04:58:09;;;;;;;0.49;0.49;;;;;;;3.90;76.03;100656.34;457914;113;922878;-81
2022/12/28 04:59:13;;;;;;;0.52;0.52;;;;;;;3.90;76.05;100653.64;465758;114;922761;-79
2022/12/28 05:00:17;;;;;;;0.55;0.54;;;;;;;3.92;75.99;100664.23;465617;114;922601;-80
2022/12/28 05:01:20;;;;;;;0.67;0.67;;;;;;;3.91;75.73;100658.03;465701;114;922457;-79
2022/12/28 05:02:23;;;;;;;0.57;0.57;;;;;;;3.89;75.61;100660.04;465682;114;922460;-79
2022/12/28 05:03:26;;;;;;;0.49;0.49;;;;;;;3.87;75.63;100663.91;464383;114;922783;-81
2022/12/28 05:04:29;;;;;;;0.40;0.40;;;;;;;3.85;75.69;100669.48;460074;115;922812;-82
2022/12/28 05:05:33;;;;;;;0.78;0.53;;;;;;;3.85;75.64;100668.64;460071;115;922538;-80
2022/12/28 05:06:36;;;;;;;0.56;0.52;;;;;;;3.83;75.63;100671.50;460058;115;922644;-79
2022/12/28 05:07:39;;;;;;;0.36;0.36;;;;;;;3.82;75.67;100685.15;460042;115;922790;-80
2022/12/28 05:08:43;;;;;;;0.61;0.56;;;;;;;3.81;75.85;100680.76;462548;114;922572;-82
2022/12/28 05:09:46;;;;;;;0.40;0.40;;;;;;;3.80;75.73;100679.10;465679;114;922575;-80
2022/12/28 05:10:50;;;;;;;0.38;0.32;;;;;;;3.78;75.65;100682.80;465781;114;922473;-81
2022/12/28 05:11:53;;;;;;;0.34;0.34;;;;;;;3.77;75.71;100688.35;465836;114;922501;-79
2022/12/28 05:12:56;;;;;;;0.36;0.36;;;;;;;3.76;75.88;100686.66;465764;114;922511;-81
2022/12/28 05:13:59;;;;;;;0.41;0.41;;;;;;;3.75;75.92;100687.67;465433;114;922586;-79
2022/12/28 05:15:03;;;;;;;0.58;0.53;;;;;;;3.73;75.99;100692.41;465692;113;922486;-78
2022/12/28 05:16:09;;;;;;;0.31;0.31;;;;;;;3.71;76.04;100681.78;465688;114;922553;-81
2022/12/28 05:17:13;;;;;;;1.16;0.31;;;;;;;3.71;76.13;100689.02;465562;114;922460;-78
2022/12/28 05:18:16;;;;;;;0.39;0.37;;;;;;;3.69;76.23;100697.27;465306;114;922527;-79
2022/12/28 05:19:19;;;;;;;0.42;0.42;;;;;;;3.68;76.26;100695.61;464444;114;922601;-79
2022/12/28 05:20:22;;;;;;;0.57;0.51;;;;;;;3.68;76.26;100703.70;464393;114;922630;-79
2022/12/28 05:21:27;;;;;;;0.34;0.34;;;;;;;3.68;76.36;100706.40;464419;114;922383;-79
2022/12/28 05:22:30;;;;;;;0.39;0.39;;;;;;;3.70;76.48;100709.75;464229;114;922527;-78
2022/12/28 05:23:37;;;;;;;0.39;0.38;;;;;;;3.70;76.51;100706.20;463067;114;930085;-79
2022/12/28 05:24:40;;;;;;;0.37;0.37;;;;;;;3.71;76.47;100716.84;464338;114;923086;-80
2022/12/28 05:25:46;;;;;;;0.51;0.49;;;;;;;3.70;76.48;100711.59;464404;114;922410;-78
2022/12/28 05:26:50;;;;;;;0.42;0.41;;;;;;;3.70;76.48;100711.59;464182;114;922477;-79
2022/12/28 05:27:54;;;;;;;0.43;0.43;;;;;;;3.68;76.40;100709.09;464399;114;922771;-80
2022/12/28 05:28:57;;;;;;;0.45;0.40;;;;;;;3.69;76.59;100718.84;464183;114;922830;-80
2022/12/28 05:30:00;;;;;;;0.50;0.50;;;;;;;3.68;76.59;100719.03;464352;114;922579;-79
2022/12/28 05:31:06;;;;;;;0.52;0.52;;;;;;;3.68;76.57;100716.34;464549;114;923246;-79
2022/12/28 05:32:09;;;;;;;0.48;0.48;;;;;;;3.66;76.62;100721.89;464294;114;922385;-80
2022/12/28 05:33:13;;;;;;;0.68;0.61;;;;;;;3.66;76.77;100719.19;464229;114;922477;-80
2022/12/28 05:34:16;;;;;;;0.72;0.59;;;;;;;3.66;76.86;100712.95;457709;116;922534;-76
2022/12/28 05:35:19;;;;;;;0.79;0.50;;;;;;;3.67;76.91;100728.97;457706;115;922314;-78
2022/12/28 05:36:25;;;;;;;0.53;0.50;;;;;;;3.66;76.93;100732.67;457661;116;922565;-80